< < Back
Terminal Aerodrome Forecast


Current Version              Previous Versions:   1  2  3  4  5  6  7  8  9  

Terminal Aerodrome Forecast

127
FTUS42 KTAE 311100
TAFTLH
TAF
KTLH 311124Z 3112/0112 33005KT P6SM SKC
     FM311800 32009G14KT P6SM SCT250
     FM010500 31015KT P6SM SKC=



Latest METAR

506
SAUS80 KWBC 312300 RRA
MTRTLH
METAR KTLH 312253Z 30005KT 10SM FEW050 21/04 A2988 RMK AO2 SLP118
T02060044 $


USA.gov is the U.S. government's official web portal to all federal, state and local government web resources and services.